createdAt,value
2017-01-23T00:01:01.249Z,27.5
2017-01-23T00:02:00.563Z,27.5
2017-01-23T00:03:01.355Z,27.5
2017-01-23T00:04:02.207Z,27.5
2017-01-23T00:04:59.720Z,27.5
2017-01-23T00:06:00.987Z,27.5
2017-01-23T00:07:00.840Z,27.5
2017-01-23T00:08:01.492Z,27.6
2017-01-23T00:09:00.907Z,27.6
2017-01-23T00:09:59.470Z,27.5
2017-01-23T00:11:01.081Z,27.6
2017-01-23T00:12:00.081Z,27.6
2017-01-23T00:13:01.249Z,27.6
2017-01-23T00:13:59.796Z,27.6
2017-01-23T00:14:59.806Z,27.6
2017-01-23T00:15:59.716Z,27.6
2017-01-23T00:17:01.498Z,27.5
2017-01-23T00:18:00.492Z,27.6
2017-01-23T00:19:00.128Z,27.6
2017-01-23T00:19:59.981Z,27.6
2017-01-23T00:21:00.082Z,27.6
2017-01-23T00:22:00.099Z,27.6
2017-01-23T00:23:00.168Z,27.6
2017-01-23T00:24:00.129Z,27.6
2017-01-23T00:25:00.282Z,27.6
2017-01-23T00:26:01.822Z,27.5
2017-01-23T00:27:00.374Z,27.5
2017-01-23T00:28:00.378Z,27.5
2017-01-23T00:29:00.688Z,27.5
2017-01-23T00:30:02.097Z,27.6
2017-01-23T00:31:02.174Z,27.6
2017-01-23T00:32:02.158Z,27.6
2017-01-23T00:33:02.249Z,27.6
2017-01-23T00:34:00.916Z,27.5
2017-01-23T00:35:02.483Z,27.5
2017-01-23T00:36:00.755Z,27.5
2017-01-23T00:37:02.515Z,27.5
2017-01-23T00:38:00.934Z,27.5
2017-01-23T00:39:02.540Z,27.5
2017-01-23T00:40:00.976Z,27.5
2017-01-23T00:41:01.231Z,27.5
2017-01-23T00:42:01.131Z,27.5
2017-01-23T00:43:02.909Z,27.5
2017-01-23T00:44:01.419Z,27.5
2017-01-23T00:45:01.325Z,27.5
2017-01-23T00:46:03.032Z,27.5
2017-01-23T00:47:01.358Z,27.5
2017-01-23T00:48:03.020Z,27.5
2017-01-23T00:49:03.072Z,27.5
2017-01-23T00:50:02.484Z,27.5
2017-01-23T00:51:03.341Z,27.5
2017-01-23T00:52:01.727Z,27.5
2017-01-23T00:53:03.200Z,27.5
2017-01-23T00:54:01.659Z,27.5
2017-01-23T00:55:01.749Z,27.5
2017-01-23T00:56:01.921Z,27.5
2017-01-23T00:57:01.950Z,27.5
2017-01-23T00:58:03.535Z,27.5
2017-01-23T00:59:03.555Z,27.5
2017-01-23T01:00:02.071Z,27.5
2017-01-23T01:01:01.997Z,27.5
2017-01-23T01:02:02.085Z,27.5
2017-01-23T01:03:04.564Z,27.5
2017-01-23T01:04:02.937Z,27.5
2017-01-23T01:05:03.749Z,27.5
2017-01-23T01:06:03.906Z,27.5
2017-01-23T01:07:03.935Z,27.5
2017-01-23T01:08:02.323Z,27.5
2017-01-23T01:09:02.654Z,27.5
2017-01-23T01:10:04.058Z,27.5
2017-01-23T01:11:02.540Z,27.5
2017-01-23T01:12:03.166Z,27.5
2017-01-23T01:13:04.349Z,27.5
2017-01-23T01:14:02.760Z,27.5
2017-01-23T01:15:04.299Z,27.5
2017-01-23T01:16:04.381Z,27.5
2017-01-23T01:17:04.542Z,27.5
2017-01-23T01:18:03.462Z,27.5
2017-01-23T01:19:02.958Z,27.5
2017-01-23T01:20:04.525Z,27.5
2017-01-23T01:21:05.371Z,27.5
2017-01-23T01:22:03.154Z,27.5
2017-01-23T01:23:04.799Z,27.5
2017-01-23T01:24:03.297Z,27.5
2017-01-23T01:25:03.376Z,27.5
2017-01-23T01:26:05.804Z,27.5
2017-01-23T01:27:05.078Z,27.5
2017-01-23T01:28:03.550Z,27.4
2017-01-23T01:29:05.212Z,27.5
2017-01-23T01:30:05.962Z,27.5
2017-01-23T01:31:03.683Z,27.5
2017-01-23T01:32:03.586Z,27.5
2017-01-23T01:33:03.777Z,27.4
2017-01-23T01:34:05.233Z,27.4
2017-01-23T01:35:05.303Z,27.4
2017-01-23T01:36:05.375Z,27.4
2017-01-23T01:37:05.437Z,27.4
2017-01-23T01:38:03.955Z,27.4
2017-01-23T01:39:04.603Z,27.4
2017-01-23T01:40:05.556Z,27.4
2017-01-23T01:41:04.160Z,27.4
2017-01-23T01:42:05.787Z,27.4
2017-01-23T01:43:04.322Z,27.4
2017-01-23T01:44:05.920Z,27.4
2017-01-23T01:45:04.352Z,27.4
2017-01-23T01:46:05.914Z,27.4
2017-01-23T01:47:05.941Z,27.4
2017-01-23T01:48:04.586Z,27.4
2017-01-23T01:49:04.568Z,27.4
2017-01-23T01:50:06.791Z,27.4
2017-01-23T01:51:05.195Z,27.4
2017-01-23T01:52:05.177Z,27.4
2017-01-23T01:53:04.669Z,27.4
2017-01-23T01:54:06.203Z,27.5
2017-01-23T01:55:04.672Z,27.5
2017-01-23T01:56:06.442Z,27.5
2017-01-23T01:57:04.880Z,27.5
2017-01-23T01:58:05.034Z,27.5
2017-01-23T01:59:04.996Z,27.5
2017-01-23T02:00:05.176Z,27.5
2017-01-23T02:01:06.681Z,27.5
2017-01-23T02:02:05.202Z,27.5
2017-01-23T02:03:06.683Z,27.4
2017-01-23T02:04:06.865Z,27.4
2017-01-23T02:05:05.271Z,27.5
2017-01-23T02:06:05.436Z,27.5
2017-01-23T02:07:05.433Z,27.5
2017-01-23T02:08:05.348Z,27.5
2017-01-23T02:09:07.028Z,27.5
2017-01-23T02:10:05.552Z,27.4
2017-01-23T02:11:05.449Z,27.4
2017-01-23T02:12:05.648Z,27.4
2017-01-23T02:13:07.322Z,27.4
2017-01-23T02:14:05.692Z,27.4
2017-01-23T02:15:07.301Z,27.4
2017-01-23T02:16:05.828Z,27.4
2017-01-23T02:17:07.443Z,27.4
2017-01-23T02:18:08.769Z,27.4
2017-01-23T02:19:05.752Z,27.4
2017-01-23T02:20:07.663Z,27.4
2017-01-23T02:21:07.528Z,27.4
2017-01-23T02:22:05.843Z,27.4
2017-01-23T02:23:07.502Z,27.4
2017-01-23T02:24:07.688Z,27.4
2017-01-23T02:25:06.114Z,27.4
2017-01-23T02:26:06.026Z,27.4
2017-01-23T02:27:06.103Z,27.4
2017-01-23T02:28:06.227Z,27.4
2017-01-23T02:29:06.969Z,27.4
2017-01-23T02:30:08.001Z,27.4
2017-01-23T02:31:08.198Z,27.4
2017-01-23T02:32:06.993Z,27.4
2017-01-23T02:33:08.162Z,27.4
2017-01-23T02:34:08.153Z,27.4
2017-01-23T02:35:06.606Z,27.4
2017-01-23T02:36:06.649Z,27.4
2017-01-23T02:37:08.194Z,27.4
2017-01-23T02:38:08.160Z,27.4
2017-01-23T02:39:06.620Z,27.4
2017-01-23T02:40:06.682Z,27.4
2017-01-23T02:41:06.737Z,27.4
2017-01-23T02:42:08.505Z,27.4
2017-01-23T02:43:08.533Z,27.4
2017-01-23T02:44:06.854Z,27.4
2017-01-23T02:45:08.518Z,27.4
2017-01-23T02:46:09.940Z,27.4
2017-01-23T02:47:08.730Z,27.4
2017-01-23T02:48:08.735Z,27.4
2017-01-23T02:49:08.741Z,27.4
2017-01-23T02:50:07.320Z,27.4
2017-01-23T02:51:09.675Z,27.4
2017-01-23T02:52:07.165Z,27.4
2017-01-23T02:53:09.639Z,27.4
2017-01-23T02:54:07.288Z,27.4
2017-01-23T02:55:09.080Z,27.4
2017-01-23T02:56:09.033Z,27.4
2017-01-23T02:57:09.133Z,27.4
2017-01-23T02:58:09.269Z,27.4
2017-01-23T02:59:10.003Z,27.4
2017-01-23T03:00:09.366Z,27.4
2017-01-23T03:01:07.811Z,27.4
2017-01-23T03:02:08.088Z,27.4
2017-01-23T03:03:07.875Z,27.4
2017-01-23T03:04:07.886Z,27.4
2017-01-23T03:05:08.057Z,27.4
2017-01-23T03:06:09.687Z,27.4
2017-01-23T03:07:09.757Z,27.4
2017-01-23T03:08:09.816Z,27.4
2017-01-23T03:09:08.202Z,27.4
2017-01-23T03:10:09.829Z,27.4
2017-01-23T03:11:08.938Z,27.4
2017-01-23T03:12:08.243Z,27.4
2017-01-23T03:13:08.482Z,27.4
2017-01-23T03:14:10.002Z,27.4
2017-01-23T03:15:10.399Z,27.4
2017-01-23T03:16:08.512Z,27.4
2017-01-23T03:17:10.240Z,27.4
2017-01-23T03:18:10.309Z,27.4
2017-01-23T03:19:10.424Z,27.4
2017-01-23T03:20:11.015Z,27.4
2017-01-23T03:21:10.411Z,27.4
2017-01-23T03:22:09.575Z,27.4
2017-01-23T03:23:10.705Z,27.4
2017-01-23T03:24:10.802Z,27.4
2017-01-23T03:25:09.850Z,27.4
2017-01-23T03:26:12.159Z,27.4
2017-01-23T03:27:09.256Z,27.4
2017-01-23T03:28:09.297Z,27.4
2017-01-23T03:29:11.033Z,27.4
2017-01-23T03:30:12.318Z,27.4
2017-01-23T03:31:09.473Z,27.3
2017-01-23T03:32:10.618Z,27.3
2017-01-23T03:33:11.021Z,27.4
2017-01-23T03:34:09.573Z,27.4
2017-01-23T03:35:11.134Z,27.4
2017-01-23T03:36:09.724Z,27.4
2017-01-23T03:37:09.747Z,27.4
2017-01-23T03:38:11.523Z,27.4
2017-01-23T03:39:11.396Z,27.4
2017-01-23T03:40:11.423Z,27.4
2017-01-23T03:41:09.804Z,27.4
2017-01-23T03:42:09.852Z,27.4
2017-01-23T03:43:11.572Z,27.4
2017-01-23T03:44:11.840Z,27.4
2017-01-23T03:45:11.903Z,27.4
2017-01-23T03:46:12.583Z,27.4
2017-01-23T03:47:10.366Z,27.4
2017-01-23T03:48:13.428Z,27.4
2017-01-23T03:49:12.182Z,27.3
2017-01-23T03:50:12.094Z,27.3
2017-01-23T03:51:12.291Z,27.4
2017-01-23T03:52:12.176Z,27.4
2017-01-23T03:53:10.585Z,27.3
2017-01-23T03:54:12.280Z,27.3
2017-01-23T03:55:12.175Z,27.3
2017-01-23T03:56:10.672Z,27.3
2017-01-23T03:57:12.371Z,27.3
2017-01-23T03:58:12.475Z,27.3
2017-01-23T03:59:12.562Z,27.3
2017-01-23T04:00:13.406Z,27.3
2017-01-23T04:01:10.945Z,27.3
2017-01-23T04:02:10.962Z,27.3
2017-01-23T04:03:11.194Z,27.3
2017-01-23T04:04:11.260Z,27.3
2017-01-23T04:05:12.976Z,27.3
2017-01-23T04:06:11.839Z,27.3
2017-01-23T04:07:13.588Z,27.3
2017-01-23T04:08:11.247Z,27.3
2017-01-23T04:09:12.131Z,27.3
2017-01-23T04:10:13.093Z,27.3
2017-01-23T04:11:13.631Z,27.3
2017-01-23T04:12:11.528Z,27.3
2017-01-23T04:13:13.720Z,27.3
2017-01-23T04:14:11.555Z,27.3
2017-01-23T04:15:13.156Z,27.3
2017-01-23T04:16:13.370Z,27.4
2017-01-23T04:17:11.688Z,27.4
2017-01-23T04:18:13.509Z,27.3
2017-01-23T04:19:14.143Z,27.3
2017-01-23T04:20:13.573Z,27.3
2017-01-23T04:21:13.629Z,27.3
2017-01-23T04:22:11.947Z,27.3
2017-01-23T04:23:13.610Z,27.3
2017-01-23T04:24:13.851Z,27.3
2017-01-23T04:25:13.780Z,27.3
2017-01-23T04:26:12.170Z,27.3
2017-01-23T04:27:14.756Z,27.3
2017-01-23T04:28:14.538Z,27.3
2017-01-23T04:29:12.447Z,27.3
2017-01-23T04:30:13.988Z,27.3
2017-01-23T04:31:13.126Z,27.3
2017-01-23T04:32:14.240Z,27.3
2017-01-23T04:33:14.915Z,27.3
2017-01-23T04:34:14.238Z,27.3
2017-01-23T04:35:14.367Z,27.3
2017-01-23T04:36:12.725Z,27.3
2017-01-23T04:37:12.807Z,27.3
2017-01-23T04:38:12.922Z,27.3
2017-01-23T04:39:13.131Z,27.3
2017-01-23T04:40:15.393Z,27.3
2017-01-23T04:41:13.259Z,27.3
2017-01-23T04:42:13.615Z,27.3
2017-01-23T04:43:13.297Z,27.3
2017-01-23T04:44:14.919Z,27.3
2017-01-23T04:45:13.283Z,27.3
2017-01-23T04:46:13.413Z,27.3
2017-01-23T04:47:15.131Z,27.3
2017-01-23T04:48:15.122Z,27.3
2017-01-23T04:49:13.302Z,27.3
2017-01-23T04:50:13.537Z,27.3
2017-01-23T04:51:15.008Z,27.3
2017-01-23T04:52:13.550Z,27.3
2017-01-23T04:53:15.048Z,27.3
2017-01-23T04:54:13.509Z,27.4
2017-01-23T04:55:15.197Z,27.4
2017-01-23T04:56:15.351Z,27.4
2017-01-23T04:57:13.727Z,27.4
2017-01-23T04:58:13.753Z,27.4
2017-01-23T04:59:13.728Z,27.4
2017-01-23T05:00:13.695Z,27.4
2017-01-23T05:01:13.892Z,27.4
2017-01-23T05:02:15.545Z,27.4
2017-01-23T05:03:15.667Z,27.4
2017-01-23T05:04:13.872Z,27.4
2017-01-23T05:05:14.075Z,27.4
2017-01-23T05:06:15.708Z,27.4
2017-01-23T05:07:15.748Z,27.4
2017-01-23T05:08:14.056Z,27.4
2017-01-23T05:09:15.758Z,27.4
2017-01-23T05:10:14.210Z,27.4
2017-01-23T05:11:14.423Z,27.4
2017-01-23T05:12:15.954Z,27.4
2017-01-23T05:13:14.436Z,27.4
2017-01-23T05:14:16.182Z,27.3
2017-01-23T05:15:14.580Z,27.3
2017-01-23T05:16:14.629Z,27.3
2017-01-23T05:17:15.343Z,27.3
2017-01-23T05:18:16.394Z,27.3
2017-01-23T05:19:16.392Z,27.3
2017-01-23T05:20:15.242Z,27.3
2017-01-23T05:21:16.503Z,27.3
2017-01-23T05:22:16.563Z,27.3
2017-01-23T05:23:16.729Z,27.3
2017-01-23T05:24:15.697Z,27.3
2017-01-23T05:25:15.314Z,27.3
2017-01-23T05:26:16.809Z,27.3
2017-01-23T05:27:16.014Z,27.3
2017-01-23T05:28:15.428Z,27.3
2017-01-23T05:29:17.227Z,27.3
2017-01-23T05:30:15.561Z,27.3
2017-01-23T05:31:15.734Z,27.3
2017-01-23T05:32:16.312Z,27.3
2017-01-23T05:33:17.556Z,27.3
2017-01-23T05:34:17.418Z,27.3
2017-01-23T05:35:18.476Z,27.3
2017-01-23T05:36:15.800Z,27.3
2017-01-23T05:37:17.490Z,27.3
2017-01-23T05:38:15.954Z,27.3
2017-01-23T05:39:17.589Z,27.3
2017-01-23T05:40:17.621Z,27.4
2017-01-23T05:41:16.867Z,27.4
2017-01-23T05:42:16.304Z,27.4
2017-01-23T05:43:16.165Z,27.4
2017-01-23T05:44:17.793Z,27.4
2017-01-23T05:45:16.234Z,27.4
2017-01-23T05:46:16.300Z,27.4
2017-01-23T05:47:17.928Z,27.4
2017-01-23T05:48:16.444Z,27.4
2017-01-23T05:49:18.170Z,27.4
2017-01-23T05:50:16.684Z,27.4
2017-01-23T05:51:16.525Z,27.4
2017-01-23T05:52:18.256Z,27.4
2017-01-23T05:53:16.783Z,27.4
2017-01-23T05:54:18.475Z,27.4
2017-01-23T05:55:18.399Z,27.4
2017-01-23T05:56:16.884Z,27.4
2017-01-23T05:57:17.111Z,27.4
2017-01-23T05:58:19.648Z,27.4
2017-01-23T05:59:17.219Z,27.4
2017-01-23T06:00:19.284Z,27.4
2017-01-23T06:01:17.384Z,27.4
2017-01-23T06:02:18.886Z,27.4
2017-01-23T06:03:17.426Z,27.5
2017-01-23T06:04:18.936Z,27.4
2017-01-23T06:05:18.985Z,27.5
2017-01-23T06:06:17.509Z,27.5
2017-01-23T06:07:17.387Z,27.5
2017-01-23T06:08:19.690Z,27.6
2017-01-23T06:09:19.167Z,27.6
2017-01-23T06:10:17.614Z,27.6
2017-01-23T06:11:19.534Z,27.6
2017-01-23T06:12:19.397Z,27.7
2017-01-23T06:13:19.518Z,27.7
2017-01-23T06:14:19.476Z,27.7
2017-01-23T06:15:17.926Z,27.7
2017-01-23T06:16:17.961Z,27.8
2017-01-23T06:17:18.017Z,27.8
2017-01-23T06:18:18.163Z,27.8
2017-01-23T06:19:18.212Z,27.8
2017-01-23T06:20:18.217Z,27.9
2017-01-23T06:21:19.769Z,27.9
2017-01-23T06:22:20.076Z,27.9
2017-01-23T06:23:18.212Z,27.9
2017-01-23T06:24:18.377Z,28
2017-01-23T06:25:19.929Z,27.9
2017-01-23T06:26:19.941Z,28
2017-01-23T06:27:18.471Z,28
2017-01-23T06:28:19.958Z,28
2017-01-23T06:29:18.587Z,28.1
2017-01-23T06:30:18.586Z,28.1
2017-01-23T06:31:20.149Z,28.1
2017-01-23T06:32:20.248Z,28.1
2017-01-23T06:33:18.673Z,28.1
2017-01-23T06:34:18.665Z,28.1
2017-01-23T06:35:20.671Z,28.2
2017-01-23T06:36:18.861Z,28.1
2017-01-23T06:37:18.949Z,28.2
2017-01-23T06:38:18.994Z,28.2
2017-01-23T06:39:18.958Z,28.2
2017-01-23T06:40:18.896Z,28.3
2017-01-23T06:41:19.065Z,28.3
2017-01-23T06:42:20.666Z,28.3
2017-01-23T06:43:19.025Z,28.3
2017-01-23T06:44:19.085Z,28.4
2017-01-23T06:45:19.226Z,28.4
2017-01-23T06:46:19.280Z,28.4
2017-01-23T06:47:22.114Z,28.4
2017-01-23T06:48:19.321Z,28.5
2017-01-23T06:49:20.975Z,28.5
2017-01-23T06:50:21.051Z,28.5
2017-01-23T06:51:20.976Z,28.5
2017-01-23T06:52:19.586Z,28.5
2017-01-23T06:53:19.523Z,28.5
2017-01-23T06:54:21.271Z,28.6
2017-01-23T06:55:21.805Z,28.5
2017-01-23T06:56:23.109Z,28.6
2017-01-23T06:57:20.415Z,28.6
2017-01-23T06:58:19.809Z,28.6
2017-01-23T06:59:21.387Z,28.6
2017-01-23T07:00:19.858Z,28.7
2017-01-23T07:01:21.643Z,28.7
2017-01-23T07:02:21.640Z,28.7
2017-01-23T07:03:19.947Z,28.7
2017-01-23T07:04:19.977Z,28.7
2017-01-23T07:05:20.665Z,28.7
2017-01-23T07:06:22.248Z,28.7
2017-01-23T07:07:21.737Z,28.8
2017-01-23T07:08:20.126Z,28.7
2017-01-23T07:09:22.609Z,28.8
2017-01-23T07:10:22.247Z,28.8
2017-01-23T07:11:20.514Z,28.8
2017-01-23T07:12:21.375Z,28.8
2017-01-23T07:13:22.163Z,28.8
2017-01-23T07:14:21.253Z,28.8
2017-01-23T07:15:22.423Z,28.9
2017-01-23T07:16:22.726Z,28.9
2017-01-23T07:17:20.616Z,28.9
2017-01-23T07:18:20.655Z,28.9
2017-01-23T07:19:20.983Z,28.9
2017-01-23T07:20:20.866Z,28.9
2017-01-23T07:21:21.586Z,28.9
2017-01-23T07:22:22.631Z,28.9
2017-01-23T07:23:23.466Z,28.9
2017-01-23T07:24:23.336Z,29
2017-01-23T07:25:21.132Z,29
2017-01-23T07:26:21.077Z,29
2017-01-23T07:27:22.244Z,29
2017-01-23T07:28:23.979Z,29
2017-01-23T07:29:21.983Z,29
2017-01-23T07:30:21.549Z,29
2017-01-23T07:31:23.218Z,29
2017-01-23T07:32:21.495Z,29
2017-01-23T07:33:22.312Z,29
2017-01-23T07:34:24.318Z,29.1
2017-01-23T07:35:23.345Z,29.1
2017-01-23T07:36:21.624Z,29.1
2017-01-23T07:37:23.606Z,29.1
2017-01-23T07:38:21.908Z,29.1
2017-01-23T07:39:22.117Z,29.1
2017-01-23T07:40:22.091Z,29.1
2017-01-23T07:41:23.658Z,29.1
2017-01-23T07:42:24.415Z,29.1
2017-01-23T07:43:26.249Z,29.2
2017-01-23T07:44:25.184Z,29.1
2017-01-23T07:45:22.662Z,29.1
2017-01-23T07:46:24.614Z,29.1
2017-01-23T07:47:24.300Z,29.1
2017-01-23T07:48:24.317Z,29.2
2017-01-23T07:49:24.094Z,29.2
2017-01-23T07:50:24.903Z,29.2
2017-01-23T07:51:23.360Z,29.2
2017-01-23T07:52:24.726Z,29.3
2017-01-23T07:53:22.983Z,29.2
2017-01-23T07:54:22.934Z,29.3
2017-01-23T07:55:24.597Z,29.3
2017-01-23T07:56:25.245Z,29.3
2017-01-23T07:57:23.179Z,29.4
2017-01-23T07:58:27.430Z,29.4
2017-01-23T07:59:24.950Z,29.4
2017-01-23T08:00:23.416Z,29.4
2017-01-23T08:01:26.227Z,29.4
2017-01-23T08:02:23.245Z,29.5
2017-01-23T08:03:25.256Z,29.5
2017-01-23T08:04:24.705Z,29.5
2017-01-23T08:05:24.122Z,29.5
2017-01-23T08:06:24.225Z,29.5
2017-01-23T08:07:26.598Z,29.5
2017-01-23T08:08:27.588Z,29.6
2017-01-23T08:09:25.599Z,29.5
2017-01-23T08:10:25.911Z,29.6
2017-01-23T08:11:25.982Z,29.6
2017-01-23T08:12:25.592Z,29.6
2017-01-23T08:13:24.509Z,29.6
2017-01-23T08:14:25.788Z,29.7
2017-01-23T08:15:26.939Z,29.7
2017-01-23T08:16:26.340Z,29.7
2017-01-23T08:17:28.133Z,29.7
2017-01-23T08:18:24.920Z,29.7
2017-01-23T08:19:24.889Z,29.7
2017-01-23T08:20:24.104Z,29.7
2017-01-23T08:21:26.359Z,29.6
2017-01-23T08:22:27.928Z,29.6
2017-01-23T08:23:26.261Z,29.6
2017-01-23T08:24:24.771Z,29.7
2017-01-23T08:25:27.327Z,29.7
2017-01-23T08:26:24.571Z,29.7
2017-01-23T08:27:26.260Z,29.7
2017-01-23T08:28:24.752Z,29.7
2017-01-23T08:29:26.655Z,29.6
2017-01-23T08:30:24.562Z,29.6
2017-01-23T08:31:25.182Z,29.6
2017-01-23T08:32:26.285Z,29.6
2017-01-23T08:33:26.276Z,29.6
2017-01-23T08:34:25.444Z,29.6
2017-01-23T08:35:26.519Z,29.7
2017-01-23T08:36:25.000Z,29.7
2017-01-23T08:37:25.839Z,29.7
2017-01-23T08:38:25.077Z,29.7
2017-01-23T08:39:26.612Z,29.7
2017-01-23T08:40:25.109Z,29.8
2017-01-23T08:41:26.860Z,29.8
2017-01-23T08:42:26.770Z,29.8
2017-01-23T08:43:25.175Z,29.8
2017-01-23T08:44:26.830Z,29.9
2017-01-23T08:45:25.290Z,29.8
2017-01-23T08:46:27.669Z,29.9
2017-01-23T08:47:25.278Z,29.9
2017-01-23T08:48:25.500Z,29.9
2017-01-23T08:49:25.461Z,29.9
2017-01-23T08:50:25.718Z,29.9
2017-01-23T08:51:27.374Z,30
2017-01-23T08:52:25.479Z,30
2017-01-23T08:53:27.687Z,30
2017-01-23T08:54:25.573Z,30
2017-01-23T08:55:26.355Z,30
2017-01-23T08:56:27.325Z,30
2017-01-23T08:57:25.712Z,30
2017-01-23T08:58:27.332Z,30.1
2017-01-23T08:59:26.307Z,30.1
2017-01-23T09:00:25.859Z,30
2017-01-23T09:01:27.593Z,30.1
2017-01-23T09:02:27.585Z,30.1
2017-01-23T09:03:25.857Z,30.1
2017-01-23T09:04:27.472Z,30.1
2017-01-23T09:05:27.731Z,30.1
2017-01-23T09:06:26.133Z,30.2
2017-01-23T09:07:26.002Z,30.2
2017-01-23T09:08:26.194Z,30.2
2017-01-23T09:09:26.099Z,30.2
2017-01-23T09:10:26.180Z,30.2
2017-01-23T09:11:26.172Z,30.2
2017-01-23T09:12:29.168Z,30.2
2017-01-23T09:13:27.976Z,30.2
2017-01-23T09:14:28.091Z,30.2
2017-01-23T09:15:26.450Z,30.3
2017-01-23T09:16:28.331Z,30.3
2017-01-23T09:17:26.795Z,30.3
2017-01-23T09:18:29.598Z,30.3
2017-01-23T09:19:27.491Z,30.3
2017-01-23T09:20:28.906Z,30.3
2017-01-23T09:21:28.655Z,30.3
2017-01-23T09:22:27.691Z,30.3
2017-01-23T09:23:27.797Z,30.3
2017-01-23T09:24:28.397Z,30.3
2017-01-23T09:25:27.380Z,30.3
2017-01-23T09:26:28.905Z,30.4
2017-01-23T09:27:30.222Z,30.4
2017-01-23T09:28:27.175Z,30.4
2017-01-23T09:29:29.505Z,30.4
2017-01-23T09:30:28.005Z,30.4
2017-01-23T09:31:27.860Z,30.4
2017-01-23T09:32:30.479Z,30.4
2017-01-23T09:33:29.155Z,30.4
2017-01-23T09:34:28.556Z,30.4
2017-01-23T09:35:29.625Z,30.4
2017-01-23T09:36:27.560Z,30.4
2017-01-23T09:37:29.176Z,30.4
2017-01-23T09:38:29.490Z,30.4
2017-01-23T09:39:27.890Z,30.4
2017-01-23T09:40:28.375Z,30.4
2017-01-23T09:41:28.419Z,30.4
2017-01-23T09:42:30.642Z,30.4
2017-01-23T09:43:29.583Z,30.4
2017-01-23T09:44:30.142Z,30.4
2017-01-23T09:45:28.074Z,30.4
2017-01-23T09:46:29.055Z,30.4
2017-01-23T09:47:30.240Z,30.4
2017-01-23T09:48:29.165Z,30.4
2017-01-23T09:49:29.018Z,30.4
2017-01-23T09:50:28.167Z,30.5
2017-01-23T09:51:30.505Z,30.5
2017-01-23T09:52:28.176Z,30.4
2017-01-23T09:53:28.997Z,30.4
2017-01-23T09:54:30.723Z,30.4
2017-01-23T09:55:32.547Z,30.4
2017-01-23T09:56:29.626Z,30.4
2017-01-23T09:57:28.683Z,30.4
2017-01-23T09:58:31.205Z,30.4
2017-01-23T09:59:30.664Z,30.5
2017-01-23T10:00:28.583Z,30.5
2017-01-23T10:01:30.191Z,30.5
2017-01-23T10:02:29.434Z,30.5
2017-01-23T10:03:31.207Z,30.5
2017-01-23T10:04:30.198Z,30.5
2017-01-23T10:05:28.724Z,30.5
2017-01-23T10:06:30.004Z,30.5
2017-01-23T10:07:28.808Z,30.6
2017-01-23T10:08:28.663Z,30.6
2017-01-23T10:09:31.593Z,30.6
2017-01-23T10:10:30.368Z,30.6
2017-01-23T10:11:30.487Z,30.6
2017-01-23T10:12:28.866Z,30.6
2017-01-23T10:13:29.152Z,30.6
2017-01-23T10:14:30.646Z,30.6
2017-01-23T10:15:31.526Z,30.6
2017-01-23T10:16:29.336Z,30.6
2017-01-23T10:17:31.522Z,30.6
2017-01-23T10:18:31.486Z,30.6
2017-01-23T10:19:30.995Z,30.6
2017-01-23T10:20:31.762Z,30.6
2017-01-23T10:21:31.071Z,30.6
2017-01-23T10:22:32.547Z,30.6
2017-01-23T10:23:31.115Z,30.6
2017-01-23T10:24:31.205Z,30.6
2017-01-23T10:25:31.294Z,30.6
2017-01-23T10:26:32.617Z,30.7
2017-01-23T10:27:33.362Z,30.7
2017-01-23T10:28:29.734Z,30.7
2017-01-23T10:29:34.100Z,30.7
2017-01-23T10:30:31.017Z,30.7
2017-01-23T10:31:30.582Z,30.7
2017-01-23T10:32:30.750Z,30.8
2017-01-23T10:33:31.714Z,30.8
2017-01-23T10:34:33.540Z,30.8
2017-01-23T10:35:33.417Z,30.8
2017-01-23T10:36:32.874Z,30.8
2017-01-23T10:37:33.811Z,30.9
2017-01-23T10:38:32.504Z,30.9
2017-01-23T10:39:30.198Z,30.9
2017-01-23T10:40:32.000Z,30.9
2017-01-23T10:41:31.262Z,30.9
2017-01-23T10:42:32.002Z,30.9
2017-01-23T10:43:34.384Z,30.9
2017-01-23T10:44:32.240Z,30.9
2017-01-23T10:45:32.175Z,30.9
2017-01-23T10:46:32.108Z,30.9
2017-01-23T10:47:34.793Z,30.9
2017-01-23T10:48:30.658Z,30.9
2017-01-23T10:49:30.752Z,30.9
2017-01-23T10:50:38.976Z,30.8
2017-01-23T10:51:31.584Z,30.8
2017-01-23T10:52:36.878Z,30.8
2017-01-23T10:53:34.438Z,30.8
2017-01-23T10:54:33.779Z,30.9
2017-01-23T10:55:34.213Z,30.9
2017-01-23T10:56:33.187Z,30.9
2017-01-23T10:57:32.165Z,30.9
2017-01-23T10:58:33.509Z,30.9
2017-01-23T10:59:34.187Z,30.9
2017-01-23T11:00:34.972Z,30.9
2017-01-23T11:01:32.066Z,30.9
2017-01-23T11:02:33.118Z,31
2017-01-23T11:03:31.588Z,31
2017-01-23T11:04:33.427Z,31
2017-01-23T11:05:31.725Z,31
2017-01-23T11:06:31.760Z,31
2017-01-23T11:07:34.668Z,31
2017-01-23T11:08:31.823Z,31
2017-01-23T11:09:33.025Z,31.1
2017-01-23T11:10:33.669Z,31.1
2017-01-23T11:11:34.053Z,31.1
2017-01-23T11:12:33.868Z,31.1
2017-01-23T11:13:33.213Z,31.1
2017-01-23T11:14:33.622Z,31.1
2017-01-23T11:15:34.096Z,31.1
2017-01-23T11:16:34.320Z,31.1
2017-01-23T11:17:32.354Z,31.1
2017-01-23T11:18:35.291Z,31.1
2017-01-23T11:19:35.399Z,31.1
2017-01-23T11:20:35.387Z,31.1
2017-01-23T11:21:33.056Z,31.1
2017-01-23T11:22:36.758Z,31.1
2017-01-23T11:23:36.343Z,31.1
2017-01-23T11:24:34.532Z,31.1
2017-01-23T11:25:36.698Z,31.1
2017-01-23T11:26:36.361Z,31.1
2017-01-23T11:27:32.944Z,31.1
2017-01-23T11:28:36.339Z,31.2
2017-01-23T11:29:38.020Z,31.2
2017-01-23T11:30:35.720Z,31.1
2017-01-23T11:31:33.706Z,31.2
2017-01-23T11:32:35.059Z,31.2
2017-01-23T11:33:32.925Z,31.2
2017-01-23T11:34:35.233Z,31.2
2017-01-23T11:35:34.706Z,31.2
2017-01-23T11:36:35.282Z,31.2
2017-01-23T11:37:33.800Z,31.2
2017-01-23T11:38:34.677Z,31.2
2017-01-23T11:39:34.387Z,31.2
2017-01-23T11:40:33.421Z,31.2
2017-01-23T11:41:33.923Z,31.2
2017-01-23T11:42:33.967Z,31.2
2017-01-23T11:43:35.135Z,31.2
2017-01-23T11:44:33.911Z,31.3
2017-01-23T11:45:36.405Z,31.3
2017-01-23T11:46:34.343Z,31.3
2017-01-23T11:47:35.373Z,31.3
2017-01-23T11:48:34.221Z,31.3
2017-01-23T11:49:33.957Z,31.3
2017-01-23T11:50:39.687Z,31.3
2017-01-23T11:51:36.785Z,31.3
2017-01-23T11:52:35.511Z,31.3
2017-01-23T11:53:36.224Z,31.3
2017-01-23T11:54:36.143Z,31.3
2017-01-23T11:55:37.896Z,31.3
2017-01-23T11:56:34.305Z,31.4
2017-01-23T11:57:35.764Z,31.4
2017-01-23T11:58:34.319Z,31.4
2017-01-23T11:59:34.334Z,31.4
2017-01-23T12:00:36.810Z,31.4
2017-01-23T12:01:36.913Z,31.3
2017-01-23T12:02:37.541Z,31.4
2017-01-23T12:03:34.437Z,31.4
2017-01-23T12:04:38.886Z,31.4
2017-01-23T12:05:34.542Z,31.4
2017-01-23T12:06:37.051Z,31.4
2017-01-23T12:07:35.265Z,31.4
2017-01-23T12:08:36.353Z,31.5
2017-01-23T12:09:35.588Z,31.5
2017-01-23T12:10:38.210Z,31.5
2017-01-23T12:11:36.889Z,31.5
2017-01-23T12:12:35.035Z,31.5
2017-01-23T12:13:35.354Z,31.5
2017-01-23T12:14:35.518Z,31.5
2017-01-23T12:15:36.006Z,31.5
2017-01-23T12:16:37.497Z,31.5
2017-01-23T12:17:36.541Z,31.4
2017-01-23T12:18:37.851Z,31.5
2017-01-23T12:19:39.201Z,31.5
2017-01-23T12:20:35.993Z,31.4
2017-01-23T12:21:38.186Z,31.4
2017-01-23T12:22:37.463Z,31.4
2017-01-23T12:23:37.075Z,31.4
2017-01-23T12:24:36.984Z,31.4
2017-01-23T12:25:35.415Z,31.4
2017-01-23T12:26:35.637Z,31.3
2017-01-23T12:27:35.509Z,31.3
2017-01-23T12:28:44.118Z,31.3
2017-01-23T12:29:42.132Z,31.3
2017-01-23T12:30:39.491Z,31.3
2017-01-23T12:31:38.857Z,31.3
2017-01-23T12:32:35.934Z,31.3
2017-01-23T12:33:37.378Z,31.2
2017-01-23T12:34:35.927Z,31.2
2017-01-23T12:35:37.611Z,31.2
2017-01-23T12:36:37.689Z,31.2
2017-01-23T12:37:39.680Z,31.2
2017-01-23T12:38:36.221Z,31.2
2017-01-23T12:39:38.372Z,31.2
2017-01-23T12:40:39.225Z,31.2
2017-01-23T12:41:36.355Z,31.2
2017-01-23T12:42:39.001Z,31.1
2017-01-23T12:43:36.271Z,31.1
2017-01-23T12:44:36.465Z,31.1
2017-01-23T12:45:38.223Z,31.1
2017-01-23T12:46:38.679Z,31.1
2017-01-23T12:47:40.798Z,31.1
2017-01-23T12:48:37.434Z,31.1
2017-01-23T12:49:38.118Z,31.1
2017-01-23T12:50:40.216Z,31.1
2017-01-23T12:51:38.092Z,31.1
2017-01-23T12:52:39.233Z,31.1
2017-01-23T12:53:38.544Z,31.1
2017-01-23T12:54:39.077Z,31.1
2017-01-23T12:55:39.178Z,31.1
2017-01-23T12:56:37.058Z,31.1
2017-01-23T12:57:36.879Z,31.1
2017-01-23T12:58:36.914Z,31.1
2017-01-23T12:59:37.556Z,31.1
2017-01-23T13:00:37.074Z,31.2
2017-01-23T13:01:38.681Z,31.2
2017-01-23T13:02:38.541Z,31.2
2017-01-23T13:03:39.552Z,31.2
2017-01-23T13:04:37.417Z,31.2
2017-01-23T13:05:41.047Z,31.2
2017-01-23T13:06:40.324Z,31.2
2017-01-23T13:07:39.850Z,31.2
2017-01-23T13:08:38.289Z,31.2
2017-01-23T13:09:39.122Z,31.2
2017-01-23T13:10:38.719Z,31.2
2017-01-23T13:11:39.957Z,31.2
2017-01-23T13:12:37.748Z,31.2
2017-01-23T13:13:39.430Z,31.2
2017-01-23T13:14:39.619Z,31.3
2017-01-23T13:15:40.897Z,31.2
2017-01-23T13:16:42.368Z,31.3
2017-01-23T13:17:39.674Z,31.3
2017-01-23T13:18:39.624Z,31.3
2017-01-23T13:19:37.934Z,31.3
2017-01-23T13:20:39.666Z,31.3
2017-01-23T13:21:38.614Z,31.3